createdAt,value
2023-02-05T00:02:26.209Z,16.95
2023-02-05T00:04:53.428Z,15.13
2023-02-05T00:07:19.865Z,14.40
2023-02-05T00:09:46.266Z,18.15
2023-02-05T00:12:12.697Z,15.77
2023-02-05T00:14:39.091Z,15.65
2023-02-05T00:17:05.682Z,12.80
2023-02-05T00:19:32.152Z,16.17
2023-02-05T00:21:58.593Z,14.57
2023-02-05T00:24:25.290Z,16.83
2023-02-05T00:26:51.734Z,15.57
2023-02-05T00:29:18.179Z,17.88
2023-02-05T00:31:44.698Z,23.33
2023-02-05T00:34:11.799Z,25.73
2023-02-05T00:36:38.192Z,24.48
2023-02-05T00:39:04.722Z,30.33
2023-02-05T00:41:31.129Z,27.73
2023-02-05T00:43:57.506Z,26.55
2023-02-05T00:46:23.921Z,26.83
2023-02-05T00:48:50.375Z,24.20
2023-02-05T00:51:16.813Z,25.27
2023-02-05T00:53:43.311Z,26.58
2023-02-05T00:56:09.806Z,23.67
2023-02-05T00:58:36.769Z,28.60
2023-02-05T01:01:03.263Z,22.75
2023-02-05T01:03:29.896Z,22.98
2023-02-05T01:05:57.021Z,25.95
2023-02-05T01:08:23.955Z,23.60
2023-02-05T01:10:51.156Z,22.90
2023-02-05T01:13:18.656Z,24.35
2023-02-05T01:15:46.020Z,23.70
2023-02-05T01:18:13.115Z,25.63
2023-02-05T01:20:40.810Z,23.13
2023-02-05T01:23:07.441Z,17.42
2023-02-05T01:25:34.377Z,18.35
2023-02-05T01:28:01.060Z,15.90
2023-02-05T01:30:27.533Z,16.85
2023-02-05T01:32:53.961Z,15.95
2023-02-05T01:35:20.776Z,15.80
2023-02-05T01:37:47.235Z,13.35
2023-02-05T01:40:15.926Z,16.13
2023-02-05T01:42:42.973Z,15.25
2023-02-05T01:45:21.765Z,19.52
2023-02-05T01:47:58.185Z,15.00
2023-02-05T01:50:31.843Z,16.85
2023-02-05T01:53:02.566Z,18.45
2023-02-05T01:55:30.612Z,15.27
2023-02-05T01:57:59.835Z,14.20
2023-02-05T02:00:26.289Z,14.30
2023-02-05T02:02:53.426Z,13.98
2023-02-05T02:05:20.241Z,14.23
2023-02-05T02:07:46.710Z,15.30
2023-02-05T02:10:15.341Z,12.30
2023-02-05T02:12:44.430Z,19.58
2023-02-05T02:15:14.589Z,15.27
2023-02-05T02:17:46.119Z,11.63
2023-02-05T02:20:33.591Z,12.80
2023-02-05T02:23:27.517Z,11.50
2023-02-05T02:26:06.005Z,17.52
2023-02-05T02:28:44.520Z,9.10
2023-02-05T02:31:16.205Z,6.57
2023-02-05T02:33:58.863Z,8.13
2023-02-05T02:36:34.116Z,9.27
2023-02-05T02:39:21.695Z,6.50
2023-02-05T02:41:53.674Z,8.05
2023-02-05T02:44:35.316Z,7.10
2023-02-05T02:47:09.712Z,8.93
2023-02-05T02:49:45.381Z,8.50
2023-02-05T02:52:15.345Z,9.23
2023-02-05T02:54:45.698Z,9.48
2023-02-05T02:57:15.654Z,9.43
2023-02-05T02:59:43.518Z,8.95
2023-02-05T03:02:12.852Z,8.20
2023-02-05T03:04:42.406Z,7.13
2023-02-05T03:07:38.154Z,9.50
2023-02-05T03:10:18.483Z,9.65
2023-02-05T03:12:45.126Z,9.93
2023-02-05T03:15:12.564Z,13.02
2023-02-05T03:17:40.148Z,9.82
2023-02-05T03:20:19.168Z,9.13
2023-02-05T03:22:45.640Z,8.50
2023-02-05T03:25:12.704Z,8.60
2023-02-05T03:27:41.443Z,8.23
2023-02-05T03:30:09.265Z,10.07
2023-02-05T03:32:41.741Z,7.72
2023-02-05T03:35:27.752Z,11.02
2023-02-05T03:38:15.854Z,9.82
2023-02-05T03:40:50.767Z,9.70
2023-02-05T03:43:44.610Z,8.38
2023-02-05T03:46:21.673Z,9.10
2023-02-05T03:49:00.604Z,8.93
2023-02-05T03:52:02.491Z,9.75
2023-02-05T03:54:34.350Z,12.98
2023-02-05T03:57:06.704Z,15.30
2023-02-05T03:59:37.395Z,15.23
2023-02-05T04:02:05.371Z,20.80
2023-02-05T04:04:36.807Z,16.88
2023-02-05T04:07:04.131Z,19.33
2023-02-05T04:09:34.040Z,17.42
2023-02-05T04:12:00.467Z,18.20
2023-02-05T04:14:27.329Z,16.05
2023-02-05T04:16:54.376Z,17.92
2023-02-05T04:19:23.092Z,14.25
2023-02-05T04:21:51.398Z,17.10
2023-02-05T04:24:19.242Z,11.75
2023-02-05T04:26:46.561Z,15.95
2023-02-05T04:29:13.463Z,11.15
2023-02-05T04:31:44.852Z,10.98
2023-02-05T04:34:12.350Z,11.32
2023-02-05T04:36:39.101Z,13.05
2023-02-05T04:39:05.597Z,12.50
2023-02-05T04:41:32.074Z,12.15
2023-02-05T04:43:58.497Z,11.82
2023-02-05T04:46:24.925Z,15.88
2023-02-05T04:48:51.317Z,13.88
2023-02-05T04:51:17.746Z,11.77
2023-02-05T04:53:44.172Z,12.20
2023-02-05T04:56:13.585Z,12.43
2023-02-05T04:58:40.439Z,14.05
2023-02-05T05:01:15.742Z,11.48
2023-02-05T05:03:42.808Z,16.27
2023-02-05T05:06:09.732Z,14.65
2023-02-05T05:08:36.839Z,15.80
2023-02-05T05:11:12.273Z,16.27
2023-02-05T05:13:38.863Z,13.15
2023-02-05T05:16:06.599Z,17.17
2023-02-05T05:18:33.514Z,14.80
2023-02-05T05:21:00.101Z,13.63
2023-02-05T05:23:26.929Z,13.40
2023-02-05T05:25:53.316Z,13.98
2023-02-05T05:28:19.846Z,17.02
2023-02-05T05:30:47.207Z,15.05
2023-02-05T05:33:13.935Z,13.45
2023-02-05T05:35:40.381Z,16.80
2023-02-05T05:38:07.577Z,12.82
2023-02-05T05:40:52.664Z,15.55
2023-02-05T05:43:38.960Z,14.13
2023-02-05T05:46:06.502Z,15.75
2023-02-05T05:48:33.353Z,13.85
2023-02-05T05:50:59.812Z,15.23
2023-02-05T05:53:26.201Z,13.75
2023-02-05T05:55:52.602Z,15.93
2023-02-05T05:58:19.058Z,16.08
2023-02-05T06:00:45.453Z,14.32
2023-02-05T06:03:12.392Z,13.35
2023-02-05T06:05:38.936Z,14.43
2023-02-05T06:08:05.674Z,13.45
2023-02-05T06:10:33.032Z,13.95
2023-02-05T06:13:00.138Z,10.07
2023-02-05T06:15:29.239Z,12.25
2023-02-05T06:17:55.717Z,14.88
2023-02-05T06:20:22.161Z,14.25
2023-02-05T06:22:48.602Z,13.43
2023-02-05T06:25:15.778Z,12.05
2023-02-05T06:27:42.362Z,12.85
2023-02-05T06:30:09.888Z,9.45
2023-02-05T06:32:36.308Z,11.40
2023-02-05T06:35:02.856Z,11.75
2023-02-05T06:37:46.150Z,15.82
2023-02-05T06:40:15.487Z,12.82
2023-02-05T06:42:41.950Z,15.95
2023-02-05T06:45:10.024Z,14.52
2023-02-05T06:47:36.825Z,13.75
2023-02-05T06:50:03.672Z,13.23
2023-02-05T06:52:30.071Z,17.30
2023-02-05T06:54:56.499Z,12.00
2023-02-05T06:57:22.875Z,12.18
2023-02-05T06:59:49.300Z,13.63
2023-02-05T07:02:15.743Z,14.75
2023-02-05T07:04:42.155Z,12.60
2023-02-05T07:07:08.585Z,13.52
2023-02-05T07:09:35.013Z,14.57
2023-02-05T07:12:01.404Z,14.43
2023-02-05T07:14:27.835Z,14.02
2023-02-05T07:16:54.231Z,14.68
2023-02-05T07:19:20.624Z,13.43
2023-02-05T07:21:47.021Z,11.38
2023-02-05T07:24:14.334Z,11.57
2023-02-05T07:26:42.819Z,13.00
2023-02-05T07:29:09.296Z,13.02
2023-02-05T07:31:36.320Z,14.93
2023-02-05T07:34:03.106Z,14.75
2023-02-05T07:36:29.585Z,13.57
2023-02-05T07:38:55.993Z,13.32
2023-02-05T07:41:22.403Z,12.45
2023-02-05T07:43:52.663Z,13.02
2023-02-05T07:46:21.004Z,14.45
2023-02-05T07:48:47.965Z,14.77
2023-02-05T07:51:17.123Z,12.63
2023-02-05T07:53:43.753Z,11.10
2023-02-05T07:56:10.179Z,16.17
2023-02-05T07:58:36.765Z,15.43
2023-02-05T08:01:04.266Z,16.10
2023-02-05T08:03:31.224Z,14.45
2023-02-05T08:05:58.009Z,15.90
2023-02-05T08:08:24.728Z,18.98
2023-02-05T08:11:05.836Z,19.02
2023-02-05T08:13:32.882Z,16.83
2023-02-05T08:15:59.464Z,14.80
2023-02-05T08:18:25.995Z,15.88
2023-02-05T08:20:55.245Z,18.85
2023-02-05T08:23:21.951Z,15.70
2023-02-05T08:25:48.624Z,24.15
2023-02-05T08:28:15.041Z,14.93
2023-02-05T08:30:41.449Z,15.23
2023-02-05T08:33:07.837Z,14.88
2023-02-05T08:35:34.544Z,19.10
2023-02-05T08:38:01.111Z,17.17
2023-02-05T08:40:27.612Z,14.20
2023-02-05T08:42:57.102Z,14.70
2023-02-05T08:45:24.671Z,14.70
2023-02-05T08:47:51.263Z,16.75
2023-02-05T08:50:18.250Z,16.33
2023-02-05T08:52:44.733Z,16.85
2023-02-05T08:55:11.516Z,17.63
2023-02-05T08:57:38.255Z,16.55
2023-02-05T09:00:05.969Z,15.35
2023-02-05T09:02:32.545Z,13.60
2023-02-05T09:05:07.991Z,19.40
2023-02-05T09:07:35.304Z,18.83
2023-02-05T09:10:01.764Z,15.30
2023-02-05T09:12:28.276Z,17.00
2023-02-05T09:14:54.701Z,15.82
2023-02-05T09:17:21.158Z,19.90
2023-02-05T09:19:47.557Z,18.15
2023-02-05T09:22:13.957Z,17.73
2023-02-05T09:24:40.403Z,18.60
2023-02-05T09:27:06.874Z,22.33
2023-02-05T09:29:33.468Z,18.48
2023-02-05T09:32:00.335Z,18.55
2023-02-05T09:34:26.784Z,15.40
2023-02-05T09:36:53.174Z,16.67
2023-02-05T09:39:52.388Z,13.75
2023-02-05T09:42:33.807Z,16.23
2023-02-05T09:45:16.644Z,25.80
2023-02-05T09:48:06.062Z,20.83
2023-02-05T09:50:34.024Z,21.83
2023-02-05T09:53:05.711Z,18.05
2023-02-05T09:55:44.868Z,15.55
2023-02-05T09:58:17.546Z,15.35
2023-02-05T10:00:53.687Z,17.98
2023-02-05T10:03:37.333Z,17.17
2023-02-05T10:06:26.294Z,16.27
2023-02-05T10:09:26.701Z,19.35
2023-02-05T10:12:23.216Z,16.70
2023-02-05T10:15:21.216Z,20.05
2023-02-05T10:18:20.643Z,19.15
2023-02-05T10:21:11.310Z,17.10
2023-02-05T10:24:02.981Z,22.40
2023-02-05T10:29:21.304Z,15.80
2023-02-05T10:32:07.491Z,15.35
2023-02-05T10:34:55.800Z,18.80
2023-02-05T10:37:46.056Z,17.67
2023-02-05T10:40:20.173Z,19.83
2023-02-05T10:42:53.760Z,16.58
2023-02-05T10:45:24.740Z,17.90
2023-02-05T10:48:09.902Z,20.95
2023-02-05T10:50:49.363Z,17.42
2023-02-05T10:53:19.456Z,19.25
2023-02-05T10:55:45.891Z,20.05
2023-02-05T10:58:31.073Z,19.45
2023-02-05T11:00:58.680Z,18.75
2023-02-05T11:03:25.127Z,20.38
2023-02-05T11:05:51.811Z,18.05
2023-02-05T11:08:33.608Z,18.67
2023-02-05T11:11:00.795Z,19.58
2023-02-05T11:13:28.264Z,18.08
2023-02-05T11:16:02.282Z,18.80
2023-02-05T11:18:45.648Z,16.92
2023-02-05T11:21:12.082Z,21.17
2023-02-05T11:23:40.167Z,23.25
2023-02-05T11:26:22.492Z,25.75
2023-02-05T11:28:49.073Z,19.17
2023-02-05T11:31:33.080Z,21.33
2023-02-05T11:34:08.589Z,23.55
2023-02-05T11:36:37.605Z,18.67
2023-02-05T11:39:05.492Z,20.95
2023-02-05T11:41:47.991Z,19.60
2023-02-05T11:44:32.197Z,21.55
2023-02-05T11:47:01.614Z,21.05
2023-02-05T11:49:40.799Z,26.25
2023-02-05T11:52:13.223Z,20.63
2023-02-05T11:54:45.912Z,20.60
2023-02-05T11:57:18.043Z,25.48
2023-02-05T12:00:01.247Z,24.08
2023-02-05T12:02:34.751Z,23.35
2023-02-05T12:05:23.898Z,25.65
2023-02-05T12:08:02.267Z,22.42
2023-02-05T12:10:46.597Z,21.38
2023-02-05T12:13:35.147Z,21.35
2023-02-05T12:16:16.830Z,20.80
2023-02-05T12:18:58.514Z,25.55
2023-02-05T12:21:49.482Z,20.35
2023-02-05T12:24:40.618Z,18.70
2023-02-05T12:27:42.090Z,23.92
2023-02-05T12:30:35.967Z,25.48
2023-02-05T12:33:31.380Z,20.10
2023-02-05T12:36:41.178Z,19.88
2023-02-05T12:39:37.252Z,21.38
2023-02-05T12:42:29.009Z,24.30
2023-02-05T12:45:22.811Z,22.58
2023-02-05T12:48:03.660Z,23.80
2023-02-05T12:50:53.508Z,24.90
2023-02-05T12:53:32.111Z,28.02
2023-02-05T12:56:15.246Z,29.90
2023-02-05T12:58:45.963Z,26.48
2023-02-05T13:01:21.104Z,22.77
2023-02-05T13:03:53.140Z,29.75
2023-02-05T13:06:37.417Z,30.90
2023-02-05T13:09:13.381Z,27.70
2023-02-05T13:11:46.152Z,25.25
2023-02-05T13:14:27.943Z,30.13
2023-02-05T13:17:00.861Z,23.55
2023-02-05T13:19:34.032Z,28.83
2023-02-05T13:22:29.941Z,24.42
2023-02-05T13:25:24.680Z,21.92
2023-02-05T13:28:17.265Z,46.42
2023-02-05T13:30:50.594Z,24.75
2023-02-05T13:33:17.117Z,23.88
2023-02-05T13:36:16.519Z,26.08
2023-02-05T13:39:07.542Z,23.58
2023-02-05T13:41:47.952Z,24.52
2023-02-05T13:44:53.786Z,18.60
2023-02-05T13:47:49.617Z,22.42
2023-02-05T13:50:48.523Z,21.23
2023-02-05T13:53:29.175Z,23.00
2023-02-05T13:56:26.990Z,20.55
2023-02-05T13:59:00.638Z,21.58
2023-02-05T14:01:31.768Z,26.48
2023-02-05T14:04:06.961Z,25.25
2023-02-05T14:06:38.789Z,23.52
2023-02-05T14:09:17.296Z,22.80
2023-02-05T14:12:06.174Z,20.48
2023-02-05T14:14:37.752Z,22.05
2023-02-05T14:17:39.605Z,22.17
2023-02-05T14:20:26.046Z,19.55
2023-02-05T14:22:57.849Z,25.50
2023-02-05T14:25:36.876Z,24.58
2023-02-05T14:28:16.575Z,24.98
2023-02-05T14:31:00.406Z,27.42
2023-02-05T14:33:32.432Z,25.63
2023-02-05T14:36:17.146Z,22.55
2023-02-05T14:39:06.060Z,23.38
2023-02-05T14:41:43.761Z,21.60
2023-02-05T14:44:12.857Z,23.77
2023-02-05T14:46:53.666Z,30.75
2023-02-05T14:49:24.837Z,44.80
2023-02-05T14:52:00.255Z,44.22
2023-02-05T14:54:31.599Z,47.00
2023-02-05T14:57:12.857Z,43.15
2023-02-05T14:59:51.068Z,47.45
2023-02-05T15:02:55.242Z,41.15
2023-02-05T15:05:34.624Z,32.55
2023-02-05T15:08:21.872Z,26.00
2023-02-05T15:10:58.256Z,20.08
2023-02-05T15:13:26.194Z,24.23
2023-02-05T15:16:11.000Z,22.25
2023-02-05T15:18:57.857Z,20.00
2023-02-05T15:21:49.880Z,18.58
2023-02-05T15:24:26.633Z,9.10
2023-02-05T15:26:59.320Z,13.38
2023-02-05T15:29:46.085Z,14.05
2023-02-05T15:32:24.410Z,10.98
2023-02-05T15:35:21.857Z,16.05
2023-02-05T15:37:55.719Z,14.73
2023-02-05T15:40:27.231Z,15.85
2023-02-05T15:42:58.320Z,15.25
2023-02-05T15:45:34.336Z,20.42
2023-02-05T15:48:02.611Z,33.13
2023-02-05T15:50:30.774Z,26.67
2023-02-05T15:52:58.618Z,20.92
2023-02-05T15:55:27.585Z,16.27
2023-02-05T15:58:02.224Z,15.75
2023-02-05T16:00:30.584Z,12.00
2023-02-05T16:03:00.289Z,14.10
2023-02-05T16:05:28.732Z,11.85
2023-02-05T16:07:57.424Z,12.48
2023-02-05T16:10:26.794Z,12.73
2023-02-05T16:13:00.633Z,11.52
2023-02-05T16:15:53.843Z,8.65
2023-02-05T16:18:36.853Z,8.27
2023-02-05T16:21:16.464Z,8.75
2023-02-05T16:23:52.657Z,6.93
2023-02-05T16:26:28.846Z,9.70
2023-02-05T16:29:01.224Z,5.97
2023-02-05T16:31:28.950Z,5.90
2023-02-05T16:34:18.158Z,6.13
2023-02-05T16:36:47.989Z,6.60
2023-02-05T16:39:25.734Z,6.82
2023-02-05T16:42:06.034Z,7.63
2023-02-05T16:44:38.641Z,6.70
2023-02-05T16:47:16.804Z,7.50
2023-02-05T16:49:45.765Z,7.18
2023-02-05T16:52:32.171Z,5.35
2023-02-05T16:55:04.611Z,5.72
2023-02-05T16:57:36.999Z,5.88
2023-02-05T17:00:25.732Z,5.95
2023-02-05T17:02:55.351Z,8.25
2023-02-05T17:05:24.758Z,14.90
2023-02-05T17:08:02.773Z,12.80
2023-02-05T17:10:29.906Z,10.25
2023-02-05T17:13:05.418Z,8.63
2023-02-05T17:15:40.412Z,16.10
2023-02-05T17:18:23.697Z,14.05
2023-02-05T17:20:50.348Z,11.02
2023-02-05T17:23:18.116Z,13.13
2023-02-05T17:25:55.472Z,11.63
2023-02-05T17:28:27.881Z,13.82
2023-02-05T17:30:59.736Z,9.38
2023-02-05T17:33:28.354Z,10.23
2023-02-05T17:35:55.175Z,12.27
2023-02-05T17:38:23.486Z,10.02
2023-02-05T17:40:50.274Z,11.73
2023-02-05T17:43:16.693Z,10.57
2023-02-05T17:45:44.185Z,11.20
2023-02-05T17:48:11.446Z,10.75
2023-02-05T17:50:38.022Z,9.15
2023-02-05T17:53:04.610Z,11.30
2023-02-05T17:55:31.203Z,9.55
2023-02-05T17:57:57.737Z,11.35
2023-02-05T18:00:27.651Z,9.43
2023-02-05T18:02:54.467Z,8.15
2023-02-05T18:05:20.970Z,9.38
2023-02-05T18:07:49.241Z,15.60
2023-02-05T18:10:20.112Z,15.05
2023-02-05T18:12:47.331Z,9.48
2023-02-05T18:15:14.105Z,6.53
2023-02-05T18:17:41.280Z,4.70
2023-02-05T18:20:09.193Z,6.32
2023-02-05T18:22:36.142Z,5.55
2023-02-05T18:25:03.173Z,6.90
2023-02-05T18:27:30.723Z,5.22
2023-02-05T18:29:57.440Z,6.30
2023-02-05T18:32:24.908Z,6.28
2023-02-05T18:34:51.476Z,5.65
2023-02-05T18:37:18.109Z,5.95
2023-02-05T18:39:45.467Z,7.22
2023-02-05T18:42:12.815Z,7.32
2023-02-05T18:44:39.801Z,7.72
2023-02-05T18:47:07.307Z,10.15
2023-02-05T18:49:34.701Z,9.13
2023-02-05T18:52:01.668Z,12.00
2023-02-05T18:54:28.141Z,8.18
2023-02-05T18:56:56.245Z,9.02
2023-02-05T18:59:24.052Z,9.13
2023-02-05T19:01:50.695Z,10.35
2023-02-05T19:04:20.842Z,9.02
2023-02-05T19:06:53.538Z,12.25
2023-02-05T19:09:24.504Z,11.38
2023-02-05T19:11:52.145Z,8.93
2023-02-05T19:14:20.776Z,11.05
2023-02-05T19:16:47.920Z,13.55
2023-02-05T19:19:18.430Z,15.43
2023-02-05T19:21:45.083Z,16.25
2023-02-05T19:24:13.663Z,22.52
2023-02-05T19:26:43.456Z,18.17
2023-02-05T19:29:14.824Z,20.88
2023-02-05T19:34:08.585Z,24.05
2023-02-05T19:36:35.787Z,22.52
2023-02-05T19:39:04.804Z,18.23
2023-02-05T19:41:33.487Z,22.17
2023-02-05T19:44:03.937Z,20.88
2023-02-05T19:46:33.551Z,19.93
2023-02-05T19:49:04.021Z,23.50
2023-02-05T19:51:30.696Z,19.43
2023-02-05T19:53:59.006Z,21.23
2023-02-05T19:56:26.029Z,28.27
2023-02-05T19:58:54.611Z,27.02
2023-02-05T20:01:30.051Z,26.63
2023-02-05T20:04:05.913Z,25.88
2023-02-05T20:06:32.375Z,27.30
2023-02-05T20:09:01.402Z,23.58
2023-02-05T20:11:30.302Z,24.48
2023-02-05T20:14:00.431Z,22.27
2023-02-05T20:16:27.151Z,21.00
2023-02-05T20:18:55.429Z,22.10
2023-02-05T20:21:22.760Z,19.45
2023-02-05T20:23:50.081Z,18.45
2023-02-05T20:26:19.009Z,20.88
2023-02-05T20:29:06.047Z,18.48
2023-02-05T20:31:41.149Z,19.90
2023-02-05T20:34:09.051Z,17.90
2023-02-05T20:36:36.354Z,18.92
2023-02-05T20:39:06.260Z,21.77
2023-02-05T20:41:32.740Z,20.55
2023-02-05T20:43:59.256Z,20.50
2023-02-05T20:46:26.134Z,22.33
2023-02-05T20:48:52.864Z,20.92
2023-02-05T20:51:22.196Z,20.75
2023-02-05T20:53:49.321Z,24.63
2023-02-05T20:56:20.170Z,21.15
2023-02-05T20:58:47.533Z,22.48
2023-02-05T21:01:15.876Z,21.80
2023-02-05T21:03:44.729Z,22.90
2023-02-05T21:06:12.463Z,23.45
2023-02-05T21:08:40.792Z,23.92
2023-02-05T21:11:07.251Z,25.10
2023-02-05T21:13:34.279Z,23.98
2023-02-05T21:16:01.773Z,22.38
2023-02-05T21:18:29.321Z,24.23
2023-02-05T21:20:56.179Z,28.00
2023-02-05T21:23:22.541Z,23.60
2023-02-05T21:25:48.987Z,25.20
2023-02-05T21:28:17.544Z,22.55
2023-02-05T21:30:45.157Z,24.80
2023-02-05T21:33:11.594Z,21.95
2023-02-05T21:35:38.753Z,24.10
2023-02-05T21:38:05.217Z,22.52
2023-02-05T21:40:31.636Z,22.23
2023-02-05T21:42:58.061Z,22.38
2023-02-05T21:45:24.503Z,21.77
2023-02-05T21:47:50.951Z,19.65
2023-02-05T21:50:17.425Z,21.20
2023-02-05T21:52:43.811Z,21.17
2023-02-05T21:55:10.204Z,21.33
2023-02-05T21:57:36.586Z,18.33
2023-02-05T22:00:04.385Z,22.90
2023-02-05T22:02:38.446Z,22.98
2023-02-05T22:05:05.129Z,23.40
2023-02-05T22:07:31.598Z,23.17
2023-02-05T22:09:58.045Z,27.42
2023-02-05T22:12:24.446Z,22.95
2023-02-05T22:14:50.877Z,24.90
2023-02-05T22:17:17.337Z,25.33
2023-02-05T22:19:43.731Z,27.00
2023-02-05T22:22:10.160Z,29.08
2023-02-05T22:24:36.534Z,29.20
2023-02-05T22:27:03.074Z,26.25
2023-02-05T22:29:29.502Z,29.90
2023-02-05T22:31:55.901Z,29.00
2023-02-05T22:34:22.492Z,26.67
2023-02-05T22:36:48.922Z,30.15
2023-02-05T22:39:15.385Z,28.17
2023-02-05T22:41:42.915Z,25.38
2023-02-05T22:44:11.469Z,29.33
2023-02-05T22:46:40.767Z,29.42
2023-02-05T22:49:07.438Z,29.70
2023-02-05T22:51:37.483Z,31.65
2023-02-05T22:54:04.930Z,33.03
2023-02-05T22:56:32.002Z,32.85
2023-02-05T22:59:00.261Z,33.67
2023-02-05T23:01:31.400Z,34.35
2023-02-05T23:03:58.442Z,34.22
2023-02-05T23:06:33.725Z,36.70
2023-02-05T23:09:13.966Z,42.95
2023-02-05T23:11:40.896Z,39.00
2023-02-05T23:14:08.324Z,41.70
2023-02-05T23:16:40.655Z,40.22
2023-02-05T23:19:13.296Z,43.30
2023-02-05T23:21:40.404Z,41.75
2023-02-05T23:24:07.146Z,40.65
2023-02-05T23:26:42.504Z,40.53
2023-02-05T23:29:10.636Z,44.60
2023-02-05T23:31:37.495Z,44.03
2023-02-05T23:34:04.414Z,48.53
2023-02-05T23:36:30.986Z,46.45
2023-02-05T23:38:57.490Z,56.40
2023-02-05T23:41:36.574Z,45.58
2023-02-05T23:44:15.221Z,51.28
2023-02-05T23:46:43.400Z,51.72
2023-02-05T23:49:10.566Z,50.00
2023-02-05T23:51:37.348Z,56.30
2023-02-05T23:54:04.453Z,74.00
2023-02-05T23:56:31.032Z,55.83
2023-02-05T23:58:58.032Z,64.00
